createdAt,value
2018-02-09T00:01:32.286Z,99.70
2018-02-09T00:04:00.362Z,99.60
2018-02-09T00:06:28.427Z,99.80
2018-02-09T00:08:56.298Z,99.80
2018-02-09T00:11:24.319Z,99.80
2018-02-09T00:13:53.348Z,99.80
2018-02-09T00:16:21.438Z,99.80
2018-02-09T00:18:49.489Z,99.70
2018-02-09T00:21:17.545Z,99.70
2018-02-09T00:23:45.521Z,99.90
2018-02-09T00:26:13.759Z,99.60
2018-02-09T00:28:42.519Z,99.70
2018-02-09T00:31:10.483Z,99.60
2018-02-09T00:33:38.526Z,99.60
2018-02-09T00:36:06.615Z,99.80
2018-02-09T00:38:34.862Z,99.90
2018-02-09T00:41:02.867Z,99.90
2018-02-09T00:43:31.474Z,99.90
2018-02-09T00:45:59.458Z,99.90
2018-02-09T00:48:28.109Z,99.90
2018-02-09T00:50:56.079Z,99.90
2018-02-09T00:53:24.162Z,99.90
2018-02-09T00:55:52.157Z,99.90
2018-02-09T00:58:20.950Z,99.90
2018-02-09T01:00:49.793Z,99.90
2018-02-09T01:03:17.927Z,99.90
2018-02-09T01:05:45.868Z,99.90
2018-02-09T01:08:14.524Z,99.90
2018-02-09T01:10:42.530Z,99.90
2018-02-09T01:13:11.285Z,99.90
2018-02-09T01:15:39.356Z,99.90
2018-02-09T01:18:07.738Z,99.90
2018-02-09T01:20:35.607Z,99.90
2018-02-09T01:23:03.472Z,99.90
2018-02-09T01:25:31.333Z,99.90
2018-02-09T01:27:59.205Z,99.90
2018-02-09T01:30:27.076Z,99.90
2018-02-09T01:32:54.866Z,99.90
2018-02-09T01:35:23.517Z,99.90
2018-02-09T01:37:51.589Z,99.90
2018-02-09T01:40:19.454Z,99.90
2018-02-09T01:42:47.645Z,99.90
2018-02-09T01:45:15.394Z,99.90
2018-02-09T01:47:43.276Z,99.90
2018-02-09T01:50:16.186Z,99.90
2018-02-09T01:52:44.871Z,99.90
2018-02-09T01:55:13.582Z,99.90
2018-02-09T01:57:41.493Z,99.90
2018-02-09T02:00:09.454Z,99.90
2018-02-09T02:02:37.538Z,99.90
2018-02-09T02:05:05.601Z,99.90
2018-02-09T02:07:33.506Z,99.90
2018-02-09T02:10:02.288Z,99.90
2018-02-09T02:12:30.958Z,99.90
2018-02-09T02:14:59.050Z,99.90
2018-02-09T02:17:27.945Z,99.90
2018-02-09T02:19:56.588Z,99.90
2018-02-09T02:22:24.681Z,99.90
2018-02-09T02:24:52.734Z,99.90
2018-02-09T02:27:20.660Z,99.90
2018-02-09T02:29:48.780Z,99.90
2018-02-09T02:32:16.535Z,99.90
2018-02-09T02:34:44.508Z,99.90
2018-02-09T02:37:12.329Z,99.90
2018-02-09T02:39:40.351Z,99.90
2018-02-09T02:42:08.316Z,99.90
2018-02-09T02:44:36.341Z,99.90
2018-02-09T02:47:04.207Z,99.90
2018-02-09T02:49:32.224Z,99.90
2018-02-09T02:52:00.395Z,99.90
2018-02-09T02:54:28.851Z,99.90
2018-02-09T02:56:56.759Z,99.90
2018-02-09T02:59:25.789Z,99.90
2018-02-09T03:01:53.987Z,99.90
2018-02-09T03:04:21.880Z,99.90
2018-02-09T03:06:50.055Z,99.90
2018-02-09T03:09:18.409Z,99.90
2018-02-09T03:11:46.687Z,99.90
2018-02-09T03:14:14.684Z,99.90
2018-02-09T03:16:42.648Z,99.90
2018-02-09T03:19:10.618Z,99.90
2018-02-09T03:21:38.556Z,99.90
2018-02-09T03:24:06.556Z,99.90
2018-02-09T03:26:34.731Z,99.90
2018-02-09T03:29:02.700Z,99.90
2018-02-09T03:31:30.677Z,99.90
2018-02-09T03:33:58.749Z,99.90
2018-02-09T03:36:27.071Z,99.90
2018-02-09T03:38:55.910Z,99.90
2018-02-09T03:41:23.877Z,99.90
2018-02-09T03:43:51.927Z,99.90
2018-02-09T03:46:19.944Z,99.90
2018-02-09T03:48:47.809Z,99.90
2018-02-09T03:51:16.723Z,99.90
2018-02-09T03:53:45.464Z,99.90
2018-02-09T03:56:14.563Z,99.90
2018-02-09T03:58:42.822Z,99.90
2018-02-09T04:01:11.215Z,99.90
2018-02-09T04:03:39.157Z,99.90
2018-02-09T04:06:07.257Z,99.90
2018-02-09T04:08:35.153Z,99.90
2018-02-09T04:11:03.043Z,99.90
2018-02-09T04:13:31.164Z,99.90
2018-02-09T04:15:58.988Z,99.90
2018-02-09T04:18:26.963Z,99.90
2018-02-09T04:20:54.973Z,99.90
2018-02-09T04:23:22.976Z,99.90
2018-02-09T04:25:51.941Z,99.90
2018-02-09T04:28:19.902Z,99.90
2018-02-09T04:30:47.973Z,99.90
2018-02-09T04:33:16.119Z,99.90
2018-02-09T04:35:44.007Z,99.90
2018-02-09T04:38:11.982Z,99.90
2018-02-09T04:40:40.054Z,99.90
2018-02-09T04:43:08.228Z,99.90
2018-02-09T04:45:36.047Z,99.90
2018-02-09T04:48:03.974Z,99.90
2018-02-09T04:50:33.327Z,99.90
2018-02-09T04:53:01.311Z,99.90
2018-02-09T04:55:29.512Z,99.90
2018-02-09T04:57:57.748Z,99.90
2018-02-09T05:00:25.814Z,99.90
2018-02-09T05:02:54.026Z,99.90
2018-02-09T05:05:22.308Z,99.90
2018-02-09T05:07:50.332Z,99.90
2018-02-09T05:10:19.480Z,99.90
2018-02-09T05:12:47.340Z,99.90
2018-02-09T05:15:15.528Z,99.90
2018-02-09T05:17:43.591Z,99.90
2018-02-09T05:20:11.872Z,99.90
2018-02-09T05:22:39.939Z,99.90
2018-02-09T05:25:08.118Z,99.90
2018-02-09T05:27:36.158Z,99.90
2018-02-09T05:30:04.160Z,99.90
2018-02-09T05:32:32.122Z,99.90
2018-02-09T05:35:00.026Z,99.90
2018-02-09T05:37:28.883Z,99.90
2018-02-09T05:39:56.850Z,99.90
2018-02-09T05:42:24.819Z,99.90
2018-02-09T05:44:52.787Z,99.90
2018-02-09T05:47:21.047Z,99.90
2018-02-09T05:49:49.136Z,99.90
2018-02-09T05:52:17.105Z,99.90
2018-02-09T05:54:45.282Z,99.90
2018-02-09T05:57:13.351Z,99.90
2018-02-09T05:59:41.443Z,99.90
2018-02-09T06:02:10.325Z,99.90
2018-02-09T06:04:38.179Z,99.90
2018-02-09T06:07:06.366Z,99.90
2018-02-09T06:09:34.220Z,99.90
2018-02-09T06:12:02.042Z,99.90
2018-02-09T06:14:30.263Z,99.90
2018-02-09T06:16:58.079Z,99.90
2018-02-09T06:19:26.056Z,99.90
2018-02-09T06:21:54.185Z,99.90
2018-02-09T06:24:22.137Z,99.90
2018-02-09T06:26:50.478Z,99.90
2018-02-09T06:29:18.327Z,99.90
2018-02-09T06:31:47.401Z,99.90
2018-02-09T06:34:15.403Z,99.90
2018-02-09T06:36:43.339Z,99.90
2018-02-09T06:39:11.544Z,99.90
2018-02-09T06:41:39.974Z,99.90
2018-02-09T06:44:07.943Z,99.90
2018-02-09T06:46:36.100Z,99.90
2018-02-09T06:49:04.001Z,99.90
2018-02-09T06:51:31.952Z,99.90
2018-02-09T06:53:59.921Z,99.90
2018-02-09T06:56:27.993Z,99.90
2018-02-09T06:58:56.166Z,99.90
2018-02-09T07:01:24.287Z,99.90
2018-02-09T07:03:53.096Z,99.90
2018-02-09T07:06:21.201Z,99.90
2018-02-09T07:08:49.439Z,99.90
2018-02-09T07:11:17.639Z,99.90
2018-02-09T07:13:45.621Z,99.90
2018-02-09T07:16:13.755Z,99.90
2018-02-09T07:18:42.276Z,99.90
2018-02-09T07:21:10.305Z,99.90
2018-02-09T07:23:38.211Z,99.90
2018-02-09T07:26:06.080Z,99.90
2018-02-09T07:28:34.027Z,99.90
2018-02-09T07:31:02.174Z,99.90
2018-02-09T07:33:30.398Z,99.90
2018-02-09T07:35:58.432Z,99.90
2018-02-09T07:38:26.603Z,99.90
2018-02-09T07:40:54.511Z,99.90
2018-02-09T07:43:22.480Z,99.90
2018-02-09T07:45:50.421Z,99.90
2018-02-09T07:48:18.414Z,99.90
2018-02-09T07:50:46.696Z,99.90
2018-02-09T07:53:14.843Z,99.90
2018-02-09T07:55:43.023Z,99.90
2018-02-09T07:58:11.218Z,99.90
2018-02-09T08:00:39.288Z,99.90
2018-02-09T08:03:07.257Z,99.90
2018-02-09T08:05:35.226Z,99.90
2018-02-09T08:08:03.147Z,99.90
2018-02-09T08:10:31.444Z,99.90
2018-02-09T08:12:59.653Z,99.70
2018-02-09T08:15:27.929Z,99.60
2018-02-09T08:17:56.076Z,99.50
2018-02-09T08:20:24.195Z,99.40
2018-02-09T08:22:52.504Z,99.20
2018-02-09T08:25:20.417Z,99.00
2018-02-09T08:27:48.654Z,99.00
2018-02-09T08:30:16.762Z,98.90
2018-02-09T08:32:44.629Z,98.90
2018-02-09T08:35:12.755Z,98.80
2018-02-09T08:37:40.652Z,98.70
2018-02-09T08:40:08.639Z,98.50
2018-02-09T08:42:36.946Z,98.30
2018-02-09T08:45:04.885Z,98.40
2018-02-09T08:47:32.810Z,98.40
2018-02-09T08:50:00.920Z,98.40
2018-02-09T08:52:28.897Z,98.30
2018-02-09T08:54:57.180Z,98.10
2018-02-09T08:57:25.336Z,97.90
2018-02-09T08:59:53.414Z,97.80
2018-02-09T09:02:21.386Z,97.80
2018-02-09T09:04:49.358Z,97.50
2018-02-09T09:07:17.328Z,97.20
2018-02-09T09:09:45.192Z,97.20
2018-02-09T09:12:13.459Z,97.10
2018-02-09T09:14:41.566Z,97.00
2018-02-09T09:17:09.717Z,96.90
2018-02-09T09:19:37.770Z,97.00
2018-02-09T09:22:05.653Z,97.00
2018-02-09T09:24:33.725Z,97.10
2018-02-09T09:27:02.078Z,97.10
2018-02-09T09:29:30.176Z,96.90
2018-02-09T09:31:58.317Z,96.80
2018-02-09T09:34:26.553Z,96.50
2018-02-09T09:36:55.313Z,95.80
2018-02-09T09:39:23.491Z,95.80
2018-02-09T09:41:51.636Z,95.40
2018-02-09T09:44:19.527Z,95.20
2018-02-09T09:46:47.702Z,95.00
2018-02-09T09:49:15.676Z,94.90
2018-02-09T09:51:43.924Z,94.80
2018-02-09T09:54:12.036Z,94.50
2018-02-09T09:56:39.988Z,94.40
2018-02-09T09:59:07.879Z,94.30
2018-02-09T10:01:35.879Z,94.30
2018-02-09T10:04:03.898Z,94.10
2018-02-09T10:06:31.950Z,93.70
2018-02-09T10:09:00.018Z,93.60
2018-02-09T10:11:28.199Z,93.20
2018-02-09T10:13:56.490Z,93.20
2018-02-09T10:16:24.552Z,93.00
2018-02-09T10:18:52.486Z,92.40
2018-02-09T10:21:20.397Z,91.60
2018-02-09T10:23:48.674Z,90.40
2018-02-09T10:26:16.957Z,88.60
2018-02-09T10:28:44.816Z,86.80
2018-02-09T10:31:12.884Z,86.70
2018-02-09T10:33:40.997Z,84.30
2018-02-09T10:36:09.646Z,80.40
2018-02-09T10:38:37.783Z,80.20
2018-02-09T10:41:05.789Z,77.60
2018-02-09T10:43:33.983Z,74.90
2018-02-09T10:46:01.882Z,70.20
2018-02-09T10:48:29.903Z,67.00
2018-02-09T10:50:57.973Z,65.70
2018-02-09T10:53:25.961Z,65.30
2018-02-09T10:55:54.019Z,65.90
2018-02-09T10:58:22.060Z,67.70
2018-02-09T11:00:55.688Z,67.80
2018-02-09T11:03:23.675Z,68.40
2018-02-09T11:05:51.653Z,68.30
2018-02-09T11:08:20.416Z,69.90
2018-02-09T11:10:49.587Z,69.00
2018-02-09T11:13:17.651Z,70.30
2018-02-09T11:15:45.919Z,70.90
2018-02-09T11:18:14.035Z,70.90
2018-02-09T11:20:41.909Z,71.30
2018-02-09T11:23:09.884Z,71.30
2018-02-09T11:25:37.941Z,71.60
2018-02-09T11:28:05.910Z,71.60
2018-02-09T11:30:34.268Z,71.70
2018-02-09T11:33:02.216Z,71.60
2018-02-09T11:35:30.247Z,71.70
2018-02-09T11:37:58.758Z,72.00
2018-02-09T11:40:27.602Z,73.00
2018-02-09T11:42:55.844Z,73.00
2018-02-09T11:45:23.887Z,73.50
2018-02-09T11:47:52.736Z,73.60
2018-02-09T11:50:20.896Z,73.60
2018-02-09T11:52:48.881Z,73.90
2018-02-09T11:55:17.566Z,74.10
2018-02-09T11:57:45.542Z,74.10
2018-02-09T12:00:13.684Z,74.50
2018-02-09T12:02:41.876Z,74.50
2018-02-09T12:05:09.750Z,74.10
2018-02-09T12:07:37.781Z,74.00
2018-02-09T12:10:05.614Z,74.10
2018-02-09T12:12:33.556Z,73.70
2018-02-09T12:15:02.031Z,74.20
2018-02-09T12:17:30.346Z,73.80
2018-02-09T12:19:59.306Z,73.60
2018-02-09T12:22:27.555Z,73.60
2018-02-09T12:24:55.552Z,73.40
2018-02-09T12:27:23.526Z,73.10
2018-02-09T12:29:51.886Z,73.70
2018-02-09T12:32:19.767Z,73.80
2018-02-09T12:34:47.942Z,74.00
2018-02-09T12:37:15.910Z,74.40
2018-02-09T12:39:43.876Z,75.00
2018-02-09T12:42:11.850Z,74.60
2018-02-09T12:44:40.226Z,74.70
2018-02-09T12:47:08.468Z,74.70
2018-02-09T12:49:36.480Z,74.60
2018-02-09T12:52:04.507Z,74.80
2018-02-09T12:54:32.987Z,74.40
2018-02-09T12:57:01.096Z,74.20
2018-02-09T12:59:29.271Z,74.60
2018-02-09T13:01:57.499Z,75.10
2018-02-09T13:04:25.486Z,75.00
2018-02-09T13:06:53.588Z,75.00
2018-02-09T13:09:21.558Z,75.30
2018-02-09T13:11:49.751Z,74.60
2018-02-09T13:14:30.694Z,72.90
2018-02-09T13:16:58.572Z,72.90
2018-02-09T13:19:26.675Z,72.20
2018-02-09T13:21:55.615Z,72.00
2018-02-09T13:24:26.678Z,71.80
2018-02-09T13:26:54.915Z,71.80
2018-02-09T13:29:22.896Z,72.10
2018-02-09T13:31:50.958Z,72.40
2018-02-09T13:34:18.895Z,72.30
2018-02-09T13:39:58.835Z,73.00
2018-02-09T13:42:26.906Z,73.40
2018-02-09T13:44:54.735Z,73.30
2018-02-09T13:47:22.946Z,73.70
2018-02-09T13:49:50.972Z,73.90
2018-02-09T13:52:18.886Z,74.60
2018-02-09T13:54:47.056Z,75.50
2018-02-09T13:57:15.466Z,75.00
2018-02-09T13:59:43.534Z,75.80
2018-02-09T14:02:11.857Z,76.10
2018-02-09T14:04:39.975Z,77.50
2018-02-09T14:07:08.852Z,77.90
2018-02-09T14:09:36.828Z,78.00
2018-02-09T14:12:05.511Z,79.30
2018-02-09T14:14:33.751Z,79.20
2018-02-09T14:17:02.397Z,79.90
2018-02-09T14:19:31.255Z,80.90
2018-02-09T14:21:59.234Z,80.90
2018-02-09T14:24:27.487Z,81.30
2018-02-09T14:26:55.751Z,81.80
2018-02-09T14:29:23.619Z,82.10
2018-02-09T14:31:52.009Z,82.60
2018-02-09T14:34:20.089Z,84.00
2018-02-09T14:36:48.116Z,83.70
2018-02-09T14:39:16.035Z,84.90
2018-02-09T14:41:44.126Z,85.30
2018-02-09T14:44:12.414Z,85.50
2018-02-09T14:46:41.384Z,86.40
2018-02-09T14:49:09.315Z,85.80
2018-02-09T14:51:38.134Z,86.00
2018-02-09T14:54:06.005Z,86.50
2018-02-09T14:56:34.257Z,86.90
2018-02-09T14:59:02.272Z,87.30
2018-02-09T15:01:30.240Z,87.80
2018-02-09T15:03:58.194Z,88.70
2018-02-09T15:06:27.196Z,89.60
2018-02-09T15:08:55.864Z,89.80
2018-02-09T15:11:23.802Z,89.90
2018-02-09T15:13:52.246Z,90.00
2018-02-09T15:16:20.901Z,90.50
2018-02-09T15:18:49.047Z,90.80
2018-02-09T15:21:17.118Z,90.80
2018-02-09T15:23:45.559Z,91.20
2018-02-09T15:26:14.415Z,91.70
2018-02-09T15:28:42.425Z,91.70
2018-02-09T15:31:11.173Z,91.90
2018-02-09T15:33:39.489Z,91.90
2018-02-09T15:36:08.341Z,92.10
2018-02-09T15:38:36.225Z,92.10
2018-02-09T15:41:04.484Z,92.00
2018-02-09T15:43:32.514Z,92.10
2018-02-09T15:46:00.727Z,92.30
2018-02-09T15:48:28.551Z,92.30
2018-02-09T15:50:56.835Z,92.30
2018-02-09T15:53:25.133Z,92.50
2018-02-09T15:55:53.460Z,92.60
2018-02-09T15:58:22.512Z,93.10
2018-02-09T16:00:50.699Z,93.10
2018-02-09T16:03:18.920Z,93.20
2018-02-09T16:05:48.251Z,93.50
2018-02-09T16:08:16.300Z,93.50
2018-02-09T16:10:44.395Z,93.70
2018-02-09T16:13:12.385Z,93.80
2018-02-09T16:15:40.675Z,93.90
2018-02-09T16:18:08.733Z,94.00
2018-02-09T16:20:36.972Z,94.30
2018-02-09T16:23:05.081Z,94.60
2018-02-09T16:25:33.106Z,94.70
2018-02-09T16:28:01.026Z,94.80
2018-02-09T16:30:29.176Z,95.00
2018-02-09T16:32:57.061Z,95.70
2018-02-09T16:35:25.133Z,96.20
2018-02-09T16:37:52.995Z,96.10
2018-02-09T16:40:20.863Z,96.30
2018-02-09T16:42:49.141Z,96.50
2018-02-09T16:45:17.398Z,96.70
2018-02-09T16:47:45.345Z,96.70
2018-02-09T16:50:13.358Z,96.70
2018-02-09T16:52:41.177Z,96.60
2018-02-09T16:55:09.195Z,96.70
2018-02-09T16:57:37.061Z,96.80
2018-02-09T17:00:05.140Z,96.90
2018-02-09T17:02:33.402Z,96.80
2018-02-09T17:05:01.459Z,96.70
2018-02-09T17:07:29.756Z,96.60
2018-02-09T17:09:58.055Z,96.60
2018-02-09T17:12:25.968Z,96.60
2018-02-09T17:14:54.369Z,96.60
2018-02-09T17:17:22.350Z,96.60
2018-02-09T17:19:50.745Z,96.50
2018-02-09T17:22:18.820Z,96.60
2018-02-09T17:24:46.770Z,96.50
2018-02-09T17:27:14.945Z,96.60
2018-02-09T17:29:42.914Z,96.40
2018-02-09T17:32:11.216Z,96.30
2018-02-09T17:34:39.467Z,96.20
2018-02-09T17:37:07.440Z,96.10
2018-02-09T17:39:35.635Z,96.10
2018-02-09T17:42:03.785Z,96.10
2018-02-09T17:44:31.752Z,96.00
2018-02-09T17:46:59.895Z,96.10
2018-02-09T17:49:28.225Z,96.10
2018-02-09T17:51:57.051Z,96.20
2018-02-09T17:54:25.128Z,96.20
2018-02-09T17:56:53.088Z,96.30
2018-02-09T17:59:21.012Z,96.40
2018-02-09T18:01:50.219Z,96.70
2018-02-09T18:04:18.067Z,96.60
2018-02-09T18:06:46.111Z,96.80
2018-02-09T18:09:14.400Z,97.00
2018-02-09T18:11:42.447Z,97.10
2018-02-09T18:14:10.633Z,97.20
2018-02-09T18:16:38.630Z,97.20
2018-02-09T18:19:06.600Z,97.40
2018-02-09T18:21:34.517Z,97.50
2018-02-09T18:24:02.537Z,97.50
2018-02-09T18:26:30.515Z,97.60
2018-02-09T18:28:58.671Z,97.70
2018-02-09T18:31:26.661Z,97.80
2018-02-09T18:33:54.899Z,97.70
2018-02-09T18:36:22.814Z,97.60
2018-02-09T18:38:50.943Z,97.60
2018-02-09T18:41:18.770Z,97.60
2018-02-09T18:43:47.708Z,97.40
2018-02-09T18:46:16.005Z,97.40
2018-02-09T18:48:43.869Z,97.50
2018-02-09T18:51:11.958Z,97.50
2018-02-09T18:53:39.841Z,97.40
2018-02-09T18:56:08.462Z,97.70
2018-02-09T18:58:36.431Z,97.30
2018-02-09T19:01:04.293Z,97.20
2018-02-09T19:03:32.300Z,97.30
2018-02-09T19:06:00.268Z,97.30
2018-02-09T19:08:28.136Z,97.30
2018-02-09T19:10:56.431Z,97.20
2018-02-09T19:13:24.555Z,97.10
2018-02-09T19:15:52.643Z,97.00
2018-02-09T19:18:20.934Z,97.10
2018-02-09T19:20:48.905Z,97.20
2018-02-09T19:23:16.871Z,97.20
2018-02-09T19:25:44.757Z,97.30
2018-02-09T19:28:12.820Z,97.40
2018-02-09T19:30:41.416Z,97.40
2018-02-09T19:33:09.459Z,97.50
2018-02-09T19:35:37.539Z,97.60
2018-02-09T19:38:05.405Z,97.70
2018-02-09T19:40:33.377Z,97.60
2018-02-09T19:43:01.275Z,97.70
2018-02-09T19:45:30.258Z,97.70
2018-02-09T19:47:59.229Z,97.70
2018-02-09T19:50:27.401Z,97.70
2018-02-09T19:52:55.380Z,97.70
2018-02-09T19:55:23.342Z,97.60
2018-02-09T19:57:51.417Z,97.50
2018-02-09T20:00:19.586Z,97.50
2018-02-09T20:02:47.861Z,97.60
2018-02-09T20:05:15.832Z,97.70
2018-02-09T20:07:44.009Z,97.60
2018-02-09T20:10:12.078Z,97.50
2018-02-09T20:12:40.254Z,97.50
2018-02-09T20:15:08.325Z,97.50
2018-02-09T20:17:36.294Z,97.50
2018-02-09T20:20:04.322Z,97.50
2018-02-09T20:22:32.589Z,97.50
2018-02-09T20:25:00.508Z,97.50
2018-02-09T20:27:28.427Z,97.50
2018-02-09T20:29:56.625Z,97.60
2018-02-09T20:32:24.620Z,97.50
2018-02-09T20:34:52.722Z,97.50
2018-02-09T20:37:21.686Z,97.40
2018-02-09T20:39:49.762Z,97.40
2018-02-09T20:42:17.932Z,97.50
2018-02-09T20:44:45.798Z,97.50
2018-02-09T20:47:13.664Z,97.50
2018-02-09T20:49:41.531Z,97.50
2018-02-09T20:52:09.415Z,97.40
2018-02-09T20:54:37.482Z,97.40
2018-02-09T20:57:05.335Z,97.40
2018-02-09T20:59:33.304Z,97.50
2018-02-09T21:02:01.275Z,97.50
2018-02-09T21:04:29.148Z,97.50
2018-02-09T21:06:57.318Z,97.50
2018-02-09T21:09:25.458Z,97.50
2018-02-09T21:11:53.460Z,97.50
2018-02-09T21:14:21.651Z,97.50
2018-02-09T21:16:50.728Z,97.60
2018-02-09T21:19:18.597Z,97.60
2018-02-09T21:21:46.872Z,97.50
2018-02-09T21:24:14.903Z,97.60
2018-02-09T21:26:43.025Z,97.70
2018-02-09T21:29:11.192Z,97.70
2018-02-09T21:31:39.057Z,97.80
2018-02-09T21:34:06.924Z,97.80
2018-02-09T21:36:35.268Z,97.80
2018-02-09T21:39:03.155Z,97.90
2018-02-09T21:41:31.407Z,97.90
2018-02-09T21:43:59.374Z,98.00
2018-02-09T21:46:27.508Z,98.00
2018-02-09T21:48:55.419Z,98.00
2018-02-09T21:51:23.392Z,98.10
2018-02-09T21:53:51.701Z,98.20
2018-02-09T21:56:19.570Z,98.30
2018-02-09T21:58:47.757Z,98.30
2018-02-09T22:01:15.813Z,98.20
2018-02-09T22:03:44.016Z,98.30
2018-02-09T22:06:12.276Z,98.20
2018-02-09T22:08:40.146Z,98.30
2018-02-09T22:11:08.203Z,98.20
2018-02-09T22:13:36.900Z,98.10
2018-02-09T22:16:04.755Z,98.10
2018-02-09T22:18:32.829Z,98.10
2018-02-09T22:21:00.763Z,98.10
2018-02-09T22:23:28.662Z,98.10
2018-02-09T22:25:56.925Z,98.10
2018-02-09T22:28:25.021Z,98.00
2018-02-09T22:30:53.155Z,98.00
2018-02-09T22:33:21.050Z,98.00
2018-02-09T22:35:49.143Z,98.00
2018-02-09T22:38:17.299Z,98.00
2018-02-09T22:40:45.165Z,98.10
2018-02-09T22:43:13.032Z,98.10
2018-02-09T22:45:41.002Z,98.10
2018-02-09T22:48:09.072Z,98.10
2018-02-09T22:50:37.136Z,98.30
2018-02-09T22:53:05.012Z,98.40
2018-02-09T22:55:32.979Z,98.40
2018-02-09T22:58:01.053Z,98.30
2018-02-09T23:00:29.328Z,98.30
2018-02-09T23:02:57.502Z,98.30
2018-02-09T23:05:25.595Z,98.30
2018-02-09T23:07:53.563Z,98.40
2018-02-09T23:10:21.615Z,98.40
2018-02-09T23:12:49.584Z,98.40
2018-02-09T23:15:17.563Z,98.30
2018-02-09T23:17:45.728Z,98.30
2018-02-09T23:20:13.799Z,98.60
2018-02-09T23:22:41.874Z,98.20
2018-02-09T23:25:09.864Z,98.20
2018-02-09T23:27:38.798Z,98.20
2018-02-09T23:30:06.811Z,98.20
2018-02-09T23:32:34.977Z,98.20
2018-02-09T23:35:02.855Z,98.20
2018-02-09T23:37:30.812Z,98.10
2018-02-09T23:39:59.631Z,98.20
2018-02-09T23:42:28.470Z,98.40
2018-02-09T23:44:56.358Z,98.20
2018-02-09T23:47:24.432Z,98.20
2018-02-09T23:49:52.418Z,98.30
2018-02-09T23:52:20.286Z,98.30
2018-02-09T23:54:48.219Z,98.40
2018-02-09T23:57:16.309Z,98.40
2018-02-09T23:59:44.255Z,98.40
